Terminal Aerodrome Forecast
Issued by NWS Sioux Falls, SD

Home | Current Version | Previous Version | Text Only | Print | Product List | Glossary On
Versions: 1 2 3 4 5 6 7 8 9 10 11 12 13
000
FTUS43 KFSD 161100
TAFSUX
TAF
KSUX 161136Z 1612/1712 16014G23KT P6SM SCT110 OVC150 WS015/20045KT
     FM161400 19017G28KT P6SM BKN120
     FM161600 23014G19KT P6SM SCT060 OVC100
     FM161900 27017G23KT P6SM SCT020 OVC040
     FM162100 30021G34KT P6SM -SHRA OVC025
     FM170000 33020G28KT P6SM BKN025
     FM170500 34016G22KT P6SM OVC015
     FM170900 33013KT P6SM SCT015 BKN100=

USA.gov is the U.S. government's official web portal to all federal, state and local government web resources and services.